sensor_id;sensor_type;location;lat;lon;timestamp;temperature;humidity
13982;DHT22;7065;50.880;5.502;2023-12-14T00:00:45;7.90;99.90
13982;DHT22;7065;50.880;5.502;2023-12-14T00:03:11;7.90;99.90
13982;DHT22;7065;50.880;5.502;2023-12-14T00:05:37;7.90;99.90
13982;DHT22;7065;50.880;5.502;2023-12-14T00:08:03;7.90;99.90
13982;DHT22;7065;50.880;5.502;2023-12-14T00:10:28;7.90;99.90
13982;DHT22;7065;50.880;5.502;2023-12-14T00:12:54;7.90;99.90
13982;DHT22;7065;50.880;5.502;2023-12-14T00:15:21;8.00;99.90
13982;DHT22;7065;50.880;5.502;2023-12-14T00:17:46;7.90;99.90
13982;DHT22;7065;50.880;5.502;2023-12-14T00:20:12;8.00;99.90
13982;DHT22;7065;50.880;5.502;2023-12-14T00:22:38;8.00;99.90
13982;DHT22;7065;50.880;5.502;2023-12-14T00:25:04;8.00;99.90
13982;DHT22;7065;50.880;5.502;2023-12-14T00:27:30;8.00;99.90
13982;DHT22;7065;50.880;5.502;2023-12-14T00:29:56;8.00;99.90
13982;DHT22;7065;50.880;5.502;2023-12-14T00:32:22;8.00;99.90
13982;DHT22;7065;50.880;5.502;2023-12-14T00:34:47;8.00;99.90
13982;DHT22;7065;50.880;5.502;2023-12-14T00:37:14;8.00;99.90
13982;DHT22;7065;50.880;5.502;2023-12-14T00:39:40;8.00;99.90
13982;DHT22;7065;50.880;5.502;2023-12-14T00:42:06;8.00;99.90
13982;DHT22;7065;50.880;5.502;2023-12-14T00:44:31;8.00;99.90
13982;DHT22;7065;50.880;5.502;2023-12-14T00:46:57;8.00;99.90
13982;DHT22;7065;50.880;5.502;2023-12-14T00:49:24;8.00;99.90
13982;DHT22;7065;50.880;5.502;2023-12-14T00:51:49;8.00;99.90
13982;DHT22;7065;50.880;5.502;2023-12-14T00:54:15;8.00;99.90
13982;DHT22;7065;50.880;5.502;2023-12-14T00:56:41;8.00;99.90
13982;DHT22;7065;50.880;5.502;2023-12-14T00:59:06;8.00;99.90
13982;DHT22;7065;50.880;5.502;2023-12-14T01:01:33;8.00;99.90
13982;DHT22;7065;50.880;5.502;2023-12-14T01:03:58;8.00;99.90
13982;DHT22;7065;50.880;5.502;2023-12-14T01:06:25;8.00;99.90
13982;DHT22;7065;50.880;5.502;2023-12-14T01:08:50;8.00;99.90
13982;DHT22;7065;50.880;5.502;2023-12-14T01:11:16;8.00;99.90
13982;DHT22;7065;50.880;5.502;2023-12-14T01:13:42;8.00;99.90
13982;DHT22;7065;50.880;5.502;2023-12-14T01:16:07;8.00;99.90
13982;DHT22;7065;50.880;5.502;2023-12-14T01:18:33;8.00;99.90
13982;DHT22;7065;50.880;5.502;2023-12-14T01:20:59;8.00;99.90
13982;DHT22;7065;50.880;5.502;2023-12-14T01:23:24;8.00;99.90
13982;DHT22;7065;50.880;5.502;2023-12-14T01:25:50;8.00;99.90
13982;DHT22;7065;50.880;5.502;2023-12-14T01:28:16;8.00;99.90
13982;DHT22;7065;50.880;5.502;2023-12-14T01:30:41;8.00;99.90
13982;DHT22;7065;50.880;5.502;2023-12-14T01:33:08;8.00;99.90
13982;DHT22;7065;50.880;5.502;2023-12-14T01:35:33;8.00;99.90
13982;DHT22;7065;50.880;5.502;2023-12-14T01:37:59;8.00;99.90
13982;DHT22;7065;50.880;5.502;2023-12-14T01:40:25;8.00;99.90
13982;DHT22;7065;50.880;5.502;2023-12-14T01:42:51;8.00;99.90
13982;DHT22;7065;50.880;5.502;2023-12-14T01:45:16;8.00;99.90
13982;DHT22;7065;50.880;5.502;2023-12-14T01:47:43;8.00;99.90
13982;DHT22;7065;50.880;5.502;2023-12-14T01:50:09;8.00;99.90
13982;DHT22;7065;50.880;5.502;2023-12-14T01:52:34;8.00;99.90
13982;DHT22;7065;50.880;5.502;2023-12-14T01:55:00;8.00;99.90
13982;DHT22;7065;50.880;5.502;2023-12-14T01:57:28;8.00;99.90
13982;DHT22;7065;50.880;5.502;2023-12-14T01:59:54;8.00;99.90
13982;DHT22;7065;50.880;5.502;2023-12-14T02:02:19;8.00;99.90
13982;DHT22;7065;50.880;5.502;2023-12-14T02:04:45;8.00;99.90
13982;DHT22;7065;50.880;5.502;2023-12-14T02:07:11;8.10;99.90
13982;DHT22;7065;50.880;5.502;2023-12-14T02:09:37;8.10;99.90
13982;DHT22;7065;50.880;5.502;2023-12-14T02:12:03;8.10;99.90
13982;DHT22;7065;50.880;5.502;2023-12-14T02:14:29;8.10;99.90
13982;DHT22;7065;50.880;5.502;2023-12-14T02:16:54;8.10;99.90
13982;DHT22;7065;50.880;5.502;2023-12-14T02:19:20;8.10;99.90
13982;DHT22;7065;50.880;5.502;2023-12-14T02:21:46;8.10;99.90
13982;DHT22;7065;50.880;5.502;2023-12-14T02:24:12;8.10;99.90
13982;DHT22;7065;50.880;5.502;2023-12-14T02:26:37;8.10;99.90
13982;DHT22;7065;50.880;5.502;2023-12-14T02:29:03;8.10;99.90
13982;DHT22;7065;50.880;5.502;2023-12-14T02:31:29;8.10;99.90
13982;DHT22;7065;50.880;5.502;2023-12-14T02:33:54;8.10;99.90
13982;DHT22;7065;50.880;5.502;2023-12-14T02:36:20;8.10;99.90
13982;DHT22;7065;50.880;5.502;2023-12-14T02:38:46;8.10;99.90
13982;DHT22;7065;50.880;5.502;2023-12-14T02:41:11;8.10;99.90
13982;DHT22;7065;50.880;5.502;2023-12-14T02:43:37;8.10;99.90
13982;DHT22;7065;50.880;5.502;2023-12-14T02:46:03;8.10;99.90
13982;DHT22;7065;50.880;5.502;2023-12-14T02:48:29;8.10;99.90
13982;DHT22;7065;50.880;5.502;2023-12-14T02:50:55;8.10;99.90
13982;DHT22;7065;50.880;5.502;2023-12-14T02:53:22;8.10;99.90
13982;DHT22;7065;50.880;5.502;2023-12-14T02:55:48;8.10;99.90
13982;DHT22;7065;50.880;5.502;2023-12-14T02:58:13;8.00;99.90
13982;DHT22;7065;50.880;5.502;2023-12-14T03:00:39;8.00;99.90
13982;DHT22;7065;50.880;5.502;2023-12-14T03:03:04;8.00;99.90
13982;DHT22;7065;50.880;5.502;2023-12-14T03:05:30;7.90;99.90
13982;DHT22;7065;50.880;5.502;2023-12-14T03:07:56;7.90;99.90
13982;DHT22;7065;50.880;5.502;2023-12-14T03:10:21;7.80;99.90
13982;DHT22;7065;50.880;5.502;2023-12-14T03:12:47;7.80;99.90
13982;DHT22;7065;50.880;5.502;2023-12-14T03:15:13;7.80;99.90
13982;DHT22;7065;50.880;5.502;2023-12-14T03:17:38;7.80;99.90
13982;DHT22;7065;50.880;5.502;2023-12-14T03:20:04;7.70;99.90
13982;DHT22;7065;50.880;5.502;2023-12-14T03:22:31;7.70;99.90
13982;DHT22;7065;50.880;5.502;2023-12-14T03:24:58;7.70;99.90
13982;DHT22;7065;50.880;5.502;2023-12-14T03:27:23;7.70;99.90
13982;DHT22;7065;50.880;5.502;2023-12-14T03:29:50;7.60;99.90
13982;DHT22;7065;50.880;5.502;2023-12-14T03:32:16;7.50;99.90
13982;DHT22;7065;50.880;5.502;2023-12-14T03:34:42;7.50;99.90
13982;DHT22;7065;50.880;5.502;2023-12-14T03:37:07;7.40;99.90
13982;DHT22;7065;50.880;5.502;2023-12-14T03:39:33;7.40;99.90
13982;DHT22;7065;50.880;5.502;2023-12-14T03:41:59;7.40;99.90
13982;DHT22;7065;50.880;5.502;2023-12-14T03:44:25;7.40;99.90
13982;DHT22;7065;50.880;5.502;2023-12-14T03:46:51;7.30;99.90
13982;DHT22;7065;50.880;5.502;2023-12-14T03:49:16;7.30;99.90
13982;DHT22;7065;50.880;5.502;2023-12-14T03:51:42;7.30;99.90
13982;DHT22;7065;50.880;5.502;2023-12-14T03:54:08;7.20;99.90
13982;DHT22;7065;50.880;5.502;2023-12-14T03:56:33;7.20;99.90
13982;DHT22;7065;50.880;5.502;2023-12-14T03:58:59;7.20;99.90
13982;DHT22;7065;50.880;5.502;2023-12-14T04:01:25;7.20;99.90
13982;DHT22;7065;50.880;5.502;2023-12-14T04:03:50;7.20;99.90
13982;DHT22;7065;50.880;5.502;2023-12-14T04:06:16;7.20;99.90
13982;DHT22;7065;50.880;5.502;2023-12-14T04:08:42;7.20;99.90
13982;DHT22;7065;50.880;5.502;2023-12-14T04:11:08;7.20;99.90
13982;DHT22;7065;50.880;5.502;2023-12-14T04:13:35;7.10;99.90
13982;DHT22;7065;50.880;5.502;2023-12-14T04:16:00;7.10;99.90
13982;DHT22;7065;50.880;5.502;2023-12-14T04:18:26;7.00;99.90
13982;DHT22;7065;50.880;5.502;2023-12-14T04:20:52;7.00;99.90
13982;DHT22;7065;50.880;5.502;2023-12-14T04:23:18;6.90;99.90
13982;DHT22;7065;50.880;5.502;2023-12-14T04:25:44;6.90;99.90
13982;DHT22;7065;50.880;5.502;2023-12-14T04:28:10;6.90;99.90
13982;DHT22;7065;50.880;5.502;2023-12-14T04:30:36;6.80;99.90
13982;DHT22;7065;50.880;5.502;2023-12-14T04:33:01;6.80;99.90
13982;DHT22;7065;50.880;5.502;2023-12-14T04:35:27;6.80;99.90
13982;DHT22;7065;50.880;5.502;2023-12-14T04:37:52;6.80;99.90
13982;DHT22;7065;50.880;5.502;2023-12-14T04:40:18;6.80;99.90
13982;DHT22;7065;50.880;5.502;2023-12-14T04:42:44;6.80;99.90
13982;DHT22;7065;50.880;5.502;2023-12-14T04:45:10;6.80;99.90
13982;DHT22;7065;50.880;5.502;2023-12-14T04:47:36;6.80;99.90
13982;DHT22;7065;50.880;5.502;2023-12-14T04:50:02;6.80;99.90
13982;DHT22;7065;50.880;5.502;2023-12-14T04:52:28;6.80;99.90
13982;DHT22;7065;50.880;5.502;2023-12-14T04:54:54;6.70;99.90
13982;DHT22;7065;50.880;5.502;2023-12-14T04:57:20;6.70;99.90
13982;DHT22;7065;50.880;5.502;2023-12-14T04:59:46;6.70;99.90
13982;DHT22;7065;50.880;5.502;2023-12-14T05:02:11;6.70;99.90
13982;DHT22;7065;50.880;5.502;2023-12-14T05:04:37;6.70;99.90
13982;DHT22;7065;50.880;5.502;2023-12-14T05:07:03;6.70;99.90
13982;DHT22;7065;50.880;5.502;2023-12-14T05:09:29;6.60;99.90
13982;DHT22;7065;50.880;5.502;2023-12-14T05:11:54;6.60;99.90
13982;DHT22;7065;50.880;5.502;2023-12-14T05:14:20;6.60;99.90
13982;DHT22;7065;50.880;5.502;2023-12-14T05:16:46;6.70;99.90
13982;DHT22;7065;50.880;5.502;2023-12-14T05:19:11;6.60;99.90
13982;DHT22;7065;50.880;5.502;2023-12-14T05:21:38;6.60;99.90
13982;DHT22;7065;50.880;5.502;2023-12-14T05:24:04;6.60;99.90
13982;DHT22;7065;50.880;5.502;2023-12-14T05:26:30;6.60;99.90
13982;DHT22;7065;50.880;5.502;2023-12-14T05:28:57;6.60;99.90
13982;DHT22;7065;50.880;5.502;2023-12-14T05:31:23;6.50;99.90
13982;DHT22;7065;50.880;5.502;2023-12-14T05:33:49;6.50;99.90
13982;DHT22;7065;50.880;5.502;2023-12-14T05:36:14;6.40;99.90
13982;DHT22;7065;50.880;5.502;2023-12-14T05:38:41;6.40;99.90
13982;DHT22;7065;50.880;5.502;2023-12-14T05:41:09;6.40;99.90
13982;DHT22;7065;50.880;5.502;2023-12-14T05:43:35;6.40;99.90
13982;DHT22;7065;50.880;5.502;2023-12-14T05:46:02;6.30;99.90
13982;DHT22;7065;50.880;5.502;2023-12-14T05:48:27;6.30;99.90
13982;DHT22;7065;50.880;5.502;2023-12-14T05:50:53;6.30;99.90
13982;DHT22;7065;50.880;5.502;2023-12-14T05:53:19;6.30;99.90
13982;DHT22;7065;50.880;5.502;2023-12-14T05:55:45;6.30;99.90
13982;DHT22;7065;50.880;5.502;2023-12-14T05:58:12;6.30;99.90
13982;DHT22;7065;50.880;5.502;2023-12-14T06:00:38;6.20;99.90
13982;DHT22;7065;50.880;5.502;2023-12-14T06:03:05;6.20;99.90
13982;DHT22;7065;50.880;5.502;2023-12-14T06:05:31;6.20;99.90
13982;DHT22;7065;50.880;5.502;2023-12-14T06:07:57;6.20;99.90
13982;DHT22;7065;50.880;5.502;2023-12-14T06:10:22;6.20;99.90
13982;DHT22;7065;50.880;5.502;2023-12-14T06:12:48;6.20;99.90
13982;DHT22;7065;50.880;5.502;2023-12-14T06:15:13;6.20;99.90
13982;DHT22;7065;50.880;5.502;2023-12-14T06:17:39;6.20;99.90
13982;DHT22;7065;50.880;5.502;2023-12-14T06:20:08;6.20;99.90
13982;DHT22;7065;50.880;5.502;2023-12-14T06:22:37;6.20;99.90
13982;DHT22;7065;50.880;5.502;2023-12-14T06:25:03;6.20;99.90
13982;DHT22;7065;50.880;5.502;2023-12-14T06:27:29;6.20;99.90
13982;DHT22;7065;50.880;5.502;2023-12-14T06:29:54;6.20;99.90
13982;DHT22;7065;50.880;5.502;2023-12-14T06:32:20;6.20;99.90
13982;DHT22;7065;50.880;5.502;2023-12-14T06:34:46;6.20;99.90
13982;DHT22;7065;50.880;5.502;2023-12-14T06:37:12;6.20;99.90
13982;DHT22;7065;50.880;5.502;2023-12-14T06:39:38;6.20;99.90
13982;DHT22;7065;50.880;5.502;2023-12-14T06:42:05;6.20;99.90
13982;DHT22;7065;50.880;5.502;2023-12-14T06:44:31;6.20;99.90
13982;DHT22;7065;50.880;5.502;2023-12-14T06:46:57;6.10;99.90
13982;DHT22;7065;50.880;5.502;2023-12-14T06:49:23;6.10;99.90
13982;DHT22;7065;50.880;5.502;2023-12-14T06:51:49;6.10;99.90
13982;DHT22;7065;50.880;5.502;2023-12-14T06:54:15;6.10;99.90
13982;DHT22;7065;50.880;5.502;2023-12-14T06:56:41;6.10;99.90
13982;DHT22;7065;50.880;5.502;2023-12-14T06:59:06;6.00;99.90
13982;DHT22;7065;50.880;5.502;2023-12-14T07:01:32;6.00;99.90
13982;DHT22;7065;50.880;5.502;2023-12-14T07:03:58;6.00;99.90
13982;DHT22;7065;50.880;5.502;2023-12-14T07:06:24;6.00;99.90
13982;DHT22;7065;50.880;5.502;2023-12-14T07:08:49;6.00;99.90
13982;DHT22;7065;50.880;5.502;2023-12-14T07:11:15;6.00;99.90
13982;DHT22;7065;50.880;5.502;2023-12-14T07:13:41;6.00;99.90
13982;DHT22;7065;50.880;5.502;2023-12-14T07:16:09;6.00;99.90
13982;DHT22;7065;50.880;5.502;2023-12-14T07:18:36;5.90;99.90
13982;DHT22;7065;50.880;5.502;2023-12-14T07:21:03;5.90;99.90
13982;DHT22;7065;50.880;5.502;2023-12-14T07:23:28;5.90;99.90
13982;DHT22;7065;50.880;5.502;2023-12-14T07:25:54;5.90;99.90
13982;DHT22;7065;50.880;5.502;2023-12-14T07:28:21;5.90;99.90
13982;DHT22;7065;50.880;5.502;2023-12-14T07:30:46;5.90;99.90
13982;DHT22;7065;50.880;5.502;2023-12-14T07:33:14;5.90;99.90
13982;DHT22;7065;50.880;5.502;2023-12-14T07:35:39;5.90;99.90
13982;DHT22;7065;50.880;5.502;2023-12-14T07:38:05;5.90;99.90
13982;DHT22;7065;50.880;5.502;2023-12-14T07:40:31;5.90;99.90
13982;DHT22;7065;50.880;5.502;2023-12-14T07:42:57;5.90;99.90
13982;DHT22;7065;50.880;5.502;2023-12-14T07:45:23;5.90;99.90
13982;DHT22;7065;50.880;5.502;2023-12-14T07:47:48;5.90;99.90
13982;DHT22;7065;50.880;5.502;2023-12-14T07:50:14;5.90;99.90
13982;DHT22;7065;50.880;5.502;2023-12-14T07:52:40;5.90;99.90
13982;DHT22;7065;50.880;5.502;2023-12-14T07:55:07;5.90;99.90
13982;DHT22;7065;50.880;5.502;2023-12-14T07:57:33;5.90;99.90
13982;DHT22;7065;50.880;5.502;2023-12-14T07:59:58;5.90;99.90
13982;DHT22;7065;50.880;5.502;2023-12-14T08:02:24;5.90;99.90
13982;DHT22;7065;50.880;5.502;2023-12-14T08:04:50;5.90;99.90
13982;DHT22;7065;50.880;5.502;2023-12-14T08:07:15;5.90;99.90
13982;DHT22;7065;50.880;5.502;2023-12-14T08:09:41;5.90;99.90
13982;DHT22;7065;50.880;5.502;2023-12-14T08:12:07;5.90;99.90
13982;DHT22;7065;50.880;5.502;2023-12-14T08:14:33;5.90;99.90
13982;DHT22;7065;50.880;5.502;2023-12-14T08:17:04;5.90;99.90
13982;DHT22;7065;50.880;5.502;2023-12-14T08:19:30;5.90;99.90
13982;DHT22;7065;50.880;5.502;2023-12-14T08:21:56;5.90;99.90
13982;DHT22;7065;50.880;5.502;2023-12-14T08:24:22;5.90;99.90
13982;DHT22;7065;50.880;5.502;2023-12-14T08:26:47;5.90;99.90
13982;DHT22;7065;50.880;5.502;2023-12-14T08:29:13;5.90;99.90
13982;DHT22;7065;50.880;5.502;2023-12-14T08:31:39;5.90;99.90
13982;DHT22;7065;50.880;5.502;2023-12-14T08:34:04;5.90;99.90
13982;DHT22;7065;50.880;5.502;2023-12-14T08:36:30;5.90;99.90
13982;DHT22;7065;50.880;5.502;2023-12-14T08:38:57;5.90;99.90
13982;DHT22;7065;50.880;5.502;2023-12-14T08:41:22;5.90;99.90
13982;DHT22;7065;50.880;5.502;2023-12-14T08:43:48;5.90;99.90
13982;DHT22;7065;50.880;5.502;2023-12-14T08:46:14;5.90;99.90
13982;DHT22;7065;50.880;5.502;2023-12-14T08:48:39;5.80;99.90
13982;DHT22;7065;50.880;5.502;2023-12-14T08:51:05;5.80;99.90
13982;DHT22;7065;50.880;5.502;2023-12-14T08:53:32;5.90;99.90
13982;DHT22;7065;50.880;5.502;2023-12-14T08:55:57;5.90;99.90
13982;DHT22;7065;50.880;5.502;2023-12-14T08:58:23;5.90;99.90
13982;DHT22;7065;50.880;5.502;2023-12-14T09:00:49;5.90;99.90
13982;DHT22;7065;50.880;5.502;2023-12-14T09:03:19;5.90;99.90
13982;DHT22;7065;50.880;5.502;2023-12-14T09:05:45;5.90;99.90
13982;DHT22;7065;50.880;5.502;2023-12-14T09:08:11;5.90;99.90
13982;DHT22;7065;50.880;5.502;2023-12-14T09:10:40;5.90;99.90
13982;DHT22;7065;50.880;5.502;2023-12-14T09:13:05;5.90;99.90
13982;DHT22;7065;50.880;5.502;2023-12-14T09:15:32;5.90;99.90
13982;DHT22;7065;50.880;5.502;2023-12-14T09:17:57;5.90;99.90
13982;DHT22;7065;50.880;5.502;2023-12-14T09:20:23;5.90;99.90
13982;DHT22;7065;50.880;5.502;2023-12-14T09:22:49;5.90;99.90
13982;DHT22;7065;50.880;5.502;2023-12-14T09:25:14;5.90;99.90
13982;DHT22;7065;50.880;5.502;2023-12-14T09:27:41;5.90;99.90
13982;DHT22;7065;50.880;5.502;2023-12-14T09:30:07;5.90;99.90
13982;DHT22;7065;50.880;5.502;2023-12-14T09:32:34;5.90;99.90
13982;DHT22;7065;50.880;5.502;2023-12-14T09:35:00;5.90;99.90
13982;DHT22;7065;50.880;5.502;2023-12-14T09:37:26;5.90;99.90
13982;DHT22;7065;50.880;5.502;2023-12-14T09:39:52;5.90;99.90
13982;DHT22;7065;50.880;5.502;2023-12-14T09:42:19;5.90;99.90
13982;DHT22;7065;50.880;5.502;2023-12-14T09:44:48;5.90;99.90
13982;DHT22;7065;50.880;5.502;2023-12-14T09:47:14;6.00;99.90
13982;DHT22;7065;50.880;5.502;2023-12-14T09:49:41;6.00;99.90
13982;DHT22;7065;50.880;5.502;2023-12-14T09:52:09;6.00;99.90
13982;DHT22;7065;50.880;5.502;2023-12-14T09:54:35;6.00;99.90
13982;DHT22;7065;50.880;5.502;2023-12-14T09:57:00;6.00;99.90
13982;DHT22;7065;50.880;5.502;2023-12-14T09:59:26;6.00;99.90
13982;DHT22;7065;50.880;5.502;2023-12-14T10:01:52;6.00;99.90
13982;DHT22;7065;50.880;5.502;2023-12-14T10:04:19;6.10;99.90
13982;DHT22;7065;50.880;5.502;2023-12-14T10:06:47;6.10;99.90
13982;DHT22;7065;50.880;5.502;2023-12-14T10:09:13;6.20;99.90
13982;DHT22;7065;50.880;5.502;2023-12-14T10:11:41;6.30;99.90
13982;DHT22;7065;50.880;5.502;2023-12-14T10:14:26;6.30;99.90
13982;DHT22;7065;50.880;5.502;2023-12-14T10:16:52;6.30;99.90
13982;DHT22;7065;50.880;5.502;2023-12-14T10:19:19;6.30;99.90
13982;DHT22;7065;50.880;5.502;2023-12-14T10:21:46;6.40;99.90
13982;DHT22;7065;50.880;5.502;2023-12-14T10:24:12;6.40;99.90
13982;DHT22;7065;50.880;5.502;2023-12-14T10:26:38;6.40;99.90
13982;DHT22;7065;50.880;5.502;2023-12-14T10:29:04;6.40;99.90
13982;DHT22;7065;50.880;5.502;2023-12-14T10:31:33;6.50;99.90
13982;DHT22;7065;50.880;5.502;2023-12-14T10:34:03;6.50;99.90
13982;DHT22;7065;50.880;5.502;2023-12-14T10:36:29;6.50;99.90
13982;DHT22;7065;50.880;5.502;2023-12-14T10:38:57;6.50;99.90
13982;DHT22;7065;50.880;5.502;2023-12-14T10:41:26;6.50;99.90
13982;DHT22;7065;50.880;5.502;2023-12-14T10:43:56;6.50;99.90
13982;DHT22;7065;50.880;5.502;2023-12-14T10:46:23;6.40;99.90
13982;DHT22;7065;50.880;5.502;2023-12-14T10:48:50;6.40;99.90
13982;DHT22;7065;50.880;5.502;2023-12-14T10:51:19;6.50;99.90
13982;DHT22;7065;50.880;5.502;2023-12-14T10:53:46;6.50;99.90
13982;DHT22;7065;50.880;5.502;2023-12-14T10:56:14;6.50;99.90
13982;DHT22;7065;50.880;5.502;2023-12-14T10:58:51;6.50;99.90
13982;DHT22;7065;50.880;5.502;2023-12-14T11:01:19;6.50;99.90
13982;DHT22;7065;50.880;5.502;2023-12-14T11:03:45;6.50;99.90
13982;DHT22;7065;50.880;5.502;2023-12-14T11:06:32;6.50;99.90
13982;DHT22;7065;50.880;5.502;2023-12-14T11:09:00;6.60;99.90
13982;DHT22;7065;50.880;5.502;2023-12-14T11:11:29;6.60;99.90
13982;DHT22;7065;50.880;5.502;2023-12-14T11:13:55;6.60;99.90
13982;DHT22;7065;50.880;5.502;2023-12-14T11:16:28;6.60;99.90
13982;DHT22;7065;50.880;5.502;2023-12-14T11:24:23;6.80;99.90
13982;DHT22;7065;50.880;5.502;2023-12-14T11:26:50;6.80;99.90
13982;DHT22;7065;50.880;5.502;2023-12-14T11:29:16;6.80;99.90
13982;DHT22;7065;50.880;5.502;2023-12-14T11:31:42;6.80;99.90
13982;DHT22;7065;50.880;5.502;2023-12-14T11:34:08;6.90;99.90
13982;DHT22;7065;50.880;5.502;2023-12-14T11:36:34;7.00;99.90
13982;DHT22;7065;50.880;5.502;2023-12-14T11:39:00;7.00;99.90
13982;DHT22;7065;50.880;5.502;2023-12-14T11:41:26;7.00;99.90
13982;DHT22;7065;50.880;5.502;2023-12-14T11:43:54;6.90;99.90
13982;DHT22;7065;50.880;5.502;2023-12-14T11:46:21;6.80;99.90
13982;DHT22;7065;50.880;5.502;2023-12-14T11:48:47;6.90;99.90
13982;DHT22;7065;50.880;5.502;2023-12-14T11:51:15;6.80;99.90
13982;DHT22;7065;50.880;5.502;2023-12-14T11:53:47;6.80;99.90
13982;DHT22;7065;50.880;5.502;2023-12-14T11:56:18;6.80;99.90
13982;DHT22;7065;50.880;5.502;2023-12-14T11:58:44;6.70;99.90
13982;DHT22;7065;50.880;5.502;2023-12-14T12:01:12;6.80;99.90
13982;DHT22;7065;50.880;5.502;2023-12-14T12:03:38;6.80;99.90
13982;DHT22;7065;50.880;5.502;2023-12-14T12:06:04;6.90;99.90
13982;DHT22;7065;50.880;5.502;2023-12-14T12:08:29;6.90;99.90
13982;DHT22;7065;50.880;5.502;2023-12-14T12:10:57;6.90;99.90
13982;DHT22;7065;50.880;5.502;2023-12-14T12:13:23;6.80;99.90
13982;DHT22;7065;50.880;5.502;2023-12-14T12:15:49;6.70;99.90
13982;DHT22;7065;50.880;5.502;2023-12-14T12:18:16;6.80;99.90
13982;DHT22;7065;50.880;5.502;2023-12-14T12:20:44;6.70;99.90
13982;DHT22;7065;50.880;5.502;2023-12-14T12:23:10;6.80;99.90
13982;DHT22;7065;50.880;5.502;2023-12-14T12:25:36;6.70;99.90
13982;DHT22;7065;50.880;5.502;2023-12-14T12:28:02;6.70;99.90
13982;DHT22;7065;50.880;5.502;2023-12-14T12:30:31;6.80;99.90
13982;DHT22;7065;50.880;5.502;2023-12-14T12:32:57;6.80;99.90
13982;DHT22;7065;50.880;5.502;2023-12-14T12:35:23;6.80;99.90
13982;DHT22;7065;50.880;5.502;2023-12-14T12:37:51;6.80;99.90
13982;DHT22;7065;50.880;5.502;2023-12-14T12:40:20;6.80;99.90
13982;DHT22;7065;50.880;5.502;2023-12-14T12:42:47;6.90;99.90
13982;DHT22;7065;50.880;5.502;2023-12-14T12:45:16;6.90;99.90
13982;DHT22;7065;50.880;5.502;2023-12-14T12:47:43;6.90;99.90
13982;DHT22;7065;50.880;5.502;2023-12-14T12:50:09;6.90;99.90
13982;DHT22;7065;50.880;5.502;2023-12-14T12:52:35;6.90;99.90
13982;DHT22;7065;50.880;5.502;2023-12-14T12:55:01;6.90;99.90
13982;DHT22;7065;50.880;5.502;2023-12-14T12:57:27;6.80;99.90
13982;DHT22;7065;50.880;5.502;2023-12-14T12:59:53;6.80;99.90
13982;DHT22;7065;50.880;5.502;2023-12-14T13:02:19;6.80;99.90
13982;DHT22;7065;50.880;5.502;2023-12-14T13:04:45;6.80;99.90
13982;DHT22;7065;50.880;5.502;2023-12-14T13:07:12;6.80;99.90
13982;DHT22;7065;50.880;5.502;2023-12-14T13:09:37;6.80;99.90
13982;DHT22;7065;50.880;5.502;2023-12-14T13:12:04;6.80;99.90
13982;DHT22;7065;50.880;5.502;2023-12-14T13:14:29;6.80;99.90
13982;DHT22;7065;50.880;5.502;2023-12-14T13:16:56;6.80;99.90
13982;DHT22;7065;50.880;5.502;2023-12-14T13:19:23;6.70;99.90
13982;DHT22;7065;50.880;5.502;2023-12-14T13:21:49;6.70;99.90
13982;DHT22;7065;50.880;5.502;2023-12-14T13:24:15;6.70;99.90
13982;DHT22;7065;50.880;5.502;2023-12-14T13:26:40;6.60;99.90
13982;DHT22;7065;50.880;5.502;2023-12-14T13:29:06;6.60;99.90
13982;DHT22;7065;50.880;5.502;2023-12-14T13:31:32;6.50;99.90
13982;DHT22;7065;50.880;5.502;2023-12-14T13:33:58;6.50;99.90
13982;DHT22;7065;50.880;5.502;2023-12-14T13:36:24;6.60;99.90
13982;DHT22;7065;50.880;5.502;2023-12-14T13:38:49;6.60;99.90
13982;DHT22;7065;50.880;5.502;2023-12-14T13:41:15;6.60;99.90
13982;DHT22;7065;50.880;5.502;2023-12-14T13:43:41;6.60;99.90
13982;DHT22;7065;50.880;5.502;2023-12-14T13:46:06;6.70;99.90
13982;DHT22;7065;50.880;5.502;2023-12-14T13:48:32;6.70;99.90
13982;DHT22;7065;50.880;5.502;2023-12-14T13:50:58;6.70;99.90
13982;DHT22;7065;50.880;5.502;2023-12-14T13:53:24;6.70;99.90
13982;DHT22;7065;50.880;5.502;2023-12-14T13:55:50;6.60;99.90
13982;DHT22;7065;50.880;5.502;2023-12-14T13:58:15;6.50;99.90
13982;DHT22;7065;50.880;5.502;2023-12-14T14:00:43;6.50;99.90
13982;DHT22;7065;50.880;5.502;2023-12-14T14:03:09;6.50;99.90
13982;DHT22;7065;50.880;5.502;2023-12-14T14:05:34;6.50;99.90
13982;DHT22;7065;50.880;5.502;2023-12-14T14:08:00;6.60;99.90
13982;DHT22;7065;50.880;5.502;2023-12-14T14:10:26;6.50;99.90
13982;DHT22;7065;50.880;5.502;2023-12-14T14:12:53;6.60;99.90
13982;DHT22;7065;50.880;5.502;2023-12-14T14:15:19;6.60;99.90
13982;DHT22;7065;50.880;5.502;2023-12-14T14:17:46;6.60;99.90
13982;DHT22;7065;50.880;5.502;2023-12-14T14:20:13;6.60;99.90
13982;DHT22;7065;50.880;5.502;2023-12-14T14:22:39;6.60;99.90
13982;DHT22;7065;50.880;5.502;2023-12-14T14:25:05;6.60;99.90
13982;DHT22;7065;50.880;5.502;2023-12-14T14:27:32;6.60;99.90
13982;DHT22;7065;50.880;5.502;2023-12-14T14:29:58;6.50;99.90
13982;DHT22;7065;50.880;5.502;2023-12-14T14:32:24;6.50;99.90
13982;DHT22;7065;50.880;5.502;2023-12-14T14:34:50;6.50;99.90
13982;DHT22;7065;50.880;5.502;2023-12-14T14:37:16;6.50;99.90
13982;DHT22;7065;50.880;5.502;2023-12-14T14:39:42;6.60;99.90
13982;DHT22;7065;50.880;5.502;2023-12-14T14:42:09;6.60;99.90
13982;DHT22;7065;50.880;5.502;2023-12-14T14:44:34;6.60;99.90
13982;DHT22;7065;50.880;5.502;2023-12-14T14:47:01;6.60;99.90
13982;DHT22;7065;50.880;5.502;2023-12-14T14:49:27;6.60;99.90
13982;DHT22;7065;50.880;5.502;2023-12-14T14:51:53;6.60;99.90
13982;DHT22;7065;50.880;5.502;2023-12-14T14:54:19;6.60;99.90
13982;DHT22;7065;50.880;5.502;2023-12-14T14:56:45;6.60;99.90
13982;DHT22;7065;50.880;5.502;2023-12-14T14:59:11;6.50;99.90
13982;DHT22;7065;50.880;5.502;2023-12-14T15:01:37;6.50;99.90
13982;DHT22;7065;50.880;5.502;2023-12-14T15:04:03;6.50;99.90
13982;DHT22;7065;50.880;5.502;2023-12-14T15:06:29;6.50;99.90
13982;DHT22;7065;50.880;5.502;2023-12-14T15:08:54;6.40;99.90
13982;DHT22;7065;50.880;5.502;2023-12-14T15:11:20;6.40;99.90
13982;DHT22;7065;50.880;5.502;2023-12-14T15:13:46;6.40;99.90
13982;DHT22;7065;50.880;5.502;2023-12-14T15:16:12;6.40;99.90
13982;DHT22;7065;50.880;5.502;2023-12-14T15:18:38;6.40;99.90
13982;DHT22;7065;50.880;5.502;2023-12-14T15:21:11;6.40;99.90
13982;DHT22;7065;50.880;5.502;2023-12-14T15:23:40;6.40;99.90
13982;DHT22;7065;50.880;5.502;2023-12-14T15:26:07;6.40;99.90
13982;DHT22;7065;50.880;5.502;2023-12-14T15:28:33;6.40;99.90
13982;DHT22;7065;50.880;5.502;2023-12-14T15:30:59;6.40;99.90
13982;DHT22;7065;50.880;5.502;2023-12-14T15:33:25;6.40;99.90
13982;DHT22;7065;50.880;5.502;2023-12-14T15:35:51;6.40;99.90
13982;DHT22;7065;50.880;5.502;2023-12-14T15:38:17;6.40;99.90
13982;DHT22;7065;50.880;5.502;2023-12-14T15:40:42;6.40;99.90
13982;DHT22;7065;50.880;5.502;2023-12-14T15:43:08;6.40;99.90
13982;DHT22;7065;50.880;5.502;2023-12-14T15:45:34;6.40;99.90
13982;DHT22;7065;50.880;5.502;2023-12-14T15:48:02;6.40;99.90
13982;DHT22;7065;50.880;5.502;2023-12-14T15:50:28;6.40;99.90
13982;DHT22;7065;50.880;5.502;2023-12-14T15:52:54;6.40;99.90
13982;DHT22;7065;50.880;5.502;2023-12-14T15:55:20;6.40;99.90
13982;DHT22;7065;50.880;5.502;2023-12-14T15:57:48;6.40;99.90
13982;DHT22;7065;50.880;5.502;2023-12-14T16:00:14;6.40;99.90